Kosei Maru — JD2378 — position and weather

sailwx.info

Track history (hours):
 
Tides and Currents Weather Stations Pressure Air Temp Water Temp Dewpoint Dewpoint Depression Visibility Wind Speed Wind Dir Waves Ship Positions

Kosei Maru

Last reported at 2018-Jan-19 01:00 UTC. Time now 2018-Jan-19 01:24 UTC.
Position N 35°29' E 139°42'.

Length 75 m; draft 5.2 m.

Type: Tanker. MMSI: 431000156.

Date/timePositionNaut miles runAvg speedWind from/ knotsBaromVisibWave heightAir tempDewpointWater temp
2018-Jan-19 01:00N 35°29' E 139°42'611.7
2018-Jan-19 00:30N 35°24' E 139°46'612.2
2018-Jan-19 00:00N 35°18' E 139°44'612.6
2018-Jan-18 23:30N 35°12' E 139°47'613.0
2018-Jan-18 23:00N 35°06' E 139°43'713.0
2018-Jan-18 22:30N 35°02' E 139°37'1013.2
2018-Jan-18 21:43N 34°55' E 139°27'514.1
2018-Jan-18 21:22N 34°52' E 139°22'613.7
2018-Jan-18 20:57N 34°49' E 139°17'613.5
2018-Jan-18 20:30N 34°45' E 139°11'713.7
2018-Jan-18 19:59N 34°40' E 139°04'712.5
2018-Jan-18 19:27N 34°36' E 138°58'612.1
2018-Jan-18 18:59N 34°35' E 138°51'1013.2
2018-Jan-18 18:13N 34°34' E 138°39'313.2
2018-Jan-18 18:00N 34°33' E 138°36'713.5
2018-Jan-18 17:30N 34°33' E 138°28'814.0
2018-Jan-18 16:54N 34°33' E 138°17'4414.7
2018-Jan-18 13:55N 34°32' E 137°24'12411.1
2018-Jan-18 02:46N 33°52' E 135°02'313.4
2018-Jan-18 02:30N 33°55' E 135°01'714.1
2018-Jan-18 02:00N 34°02' E 135°00'713.7
2018-Jan-18 01:30N 34°09' E 134°59'713.2
2018-Jan-18 01:00N 34°15' E 134°59'1111.1
2018-Jan-18 00:00N 34°25' E 135°06'113.3
2018-Jan-17 23:57N 34°25' E 135°06'  
2018-Jan-12 14:57N 34°32' E 135°19'0 0.0
2018-Jan-12 14:30N 34°32' E 135°19'0 0.0
2018-Jan-12 14:00N 34°32' E 135°19'0 0.0
2018-Jan-12 13:30N 34°32' E 135°19'0 0.0
2018-Jan-12 13:00N 34°32' E 135°19'0 0.0
2018-Jan-12 12:30N 34°32' E 135°19'0 0.0
2018-Jan-12 12:00N 34°32' E 135°19'0 0.0
2018-Jan-12 11:30N 34°32' E 135°19'0 0.0
2018-Jan-12 11:00N 34°32' E 135°19'0 0.0
2018-Jan-12 10:30N 34°32' E 135°19'0 0.0
2018-Jan-12 10:00N 34°33' E 135°19'0 0.1
2018-Jan-12 09:30N 34°33' E 135°19'611.5
2018-Jan-12 09:00N 34°29' E 135°14'713.2
2018-Jan-12 08:30N 34°24' E 135°08'613.2
2018-Jan-12 08:01N 34°20' E 135°02'612.2
2018-Jan-12 07:30N 34°14' E 134°60'612.8
2018-Jan-12 07:00N 34°08' E 135°00'612.8
2018-Jan-12 06:30N 34°01' E 135°01'712.8
2018-Jan-12 05:58N 33°55' E 135°01'16410.1
2018-Jan-11 13:45N 34°32' E 138°14'3 9.3
2018-Jan-11 13:27N 34°33' E 138°18'5 9.7
2018-Jan-11 12:58N 34°33' E 138°24'21 9.5
2018-Jan-11 10:45N 34°34' E 138°49'4 8.8
2018-Jan-11 10:20N 34°35' E 138°53'3 8.5
2018-Jan-11 10:00N 34°36' E 138°57'510.2
2018-Jan-11 09:29N 34°40' E 139°01'1011.6
2018-Jan-11 08:36N 34°48' E 139°08'610.6
2018-Jan-11 08:01N 34°53' E 139°12'211.1
2018-Jan-11 07:50N 34°55' E 139°14'611.3
2018-Jan-11 07:19N 34°58' E 139°20'311.6
2018-Jan-11 07:00N 34°60' E 139°24'611.3
2018-Jan-11 06:30N 35°02' E 139°30'510.7
2018-Jan-11 06:00N 35°04' E 139°36'5 9.8
2018-Jan-11 05:30N 35°07' E 139°41'510.8
2018-Jan-11 05:00N 35°11' E 139°45'511.1
2018-Jan-11 04:30N 35°17' E 139°46'612.3
2018-Jan-11 04:00N 35°22' E 139°42'612.6
2018-Jan-11 03:30N 35°28' E 139°46'4 8.1
2018-Jan-11 03:00N 35°32' E 139°46'0 0.0
2018-Jan-10 22:05N 35°32' E 139°46'0 0.0
2018-Jan-10 22:01N 35°32' E 139°46'2 3.3
2018-Jan-10 21:29N 35°30' E 139°47'1 3.0
2018-Jan-10 21:00N 35°29' E 139°48'0 0.0
2018-Jan-10 20:29N 35°29' E 139°48'0 0.0
2018-Jan-10 19:56N 35°29' E 139°48'0 0.0
2018-Jan-10 19:29N 35°29' E 139°48'0 0.0
2018-Jan-10 18:59N 35°29' E 139°48'0 0.0
2018-Jan-10 18:29N 35°29' E 139°48'0 0.0
2018-Jan-10 17:59N 35°29' E 139°48'0 0.1
2018-Jan-10 17:29N 35°29' E 139°48'0 0.1
2018-Jan-10 16:56N 35°29' E 139°48'0 0.1
2018-Jan-10 16:29N 35°29' E 139°48'0 0.1
2018-Jan-10 15:59N 35°29' E 139°48'0 0.0
2018-Jan-10 15:23N 35°29' E 139°48'0 0.1
2018-Jan-10 14:59N 35°29' E 139°48'0 0.0
2018-Jan-10 14:29N 35°29' E 139°48'0 0.0
2018-Jan-10 13:53N 35°29' E 139°48'0 0.1
2018-Jan-10 13:26N 35°29' E 139°48'0 0.0
2018-Jan-10 12:59N 35°29' E 139°48'0 0.1
2018-Jan-10 12:26N 35°29' E 139°48'0 0.0
2018-Jan-10 11:59N 35°29' E 139°48'0 0.0
2018-Jan-10 11:29N 35°29' E 139°48'0 0.7
2018-Jan-10 11:00N 35°29' E 139°47'612.8
2018-Jan-10 10:30N 35°23' E 139°45'612.4
2018-Jan-10 10:00N 35°16' E 139°46'612.8
2018-Jan-10 09:31N 35°10' E 139°46'713.8
2018-Jan-10 09:00N 35°04' E 139°41'714.3
2018-Jan-10 08:30N 35°00' E 139°34'1014.8
2018-Jan-10 07:50N 34°54' E 139°25'616.4
2018-Jan-10 07:29N 34°51' E 139°19'715.0
2018-Jan-10 07:00N 34°47' E 139°12'714.5
2018-Jan-10 06:31N 34°41' E 139°06'814.5
2018-Jan-10 05:59N 34°37' E 138°59'714.6
2018-Jan-10 05:31N 34°34' E 138°51'914.7
2018-Jan-10 04:56N 34°34' E 138°40'614.3
2018-Jan-10 04:30N 34°34' E 138°33'713.7
2018-Jan-10 03:59N 34°33' E 138°24'714.8
2018-Jan-10 03:29N 34°33' E 138°15'16511.8
2018-Jan-09 13:32N 33°52' E 135°02'114.5
2018-Jan-09 13:30N 33°52' E 135°02'713.8
2018-Jan-09 13:00N 33°59' E 135°01'714.0
2018-Jan-09 12:30N 34°06' E 135°03'612.7
2018-Jan-09 12:00N 34°10' E 135°09'0 0.5
2018-Jan-09 11:28N 34°10' E 135°10'0 0.0
2018-Jan-09 10:58N 34°10' E 135°10'0 0.0
2018-Jan-09 10:28N 34°10' E 135°10'0 0.0
2018-Jan-09 09:58N 34°10' E 135°10'0 0.0
2018-Jan-09 09:28N 34°10' E 135°10'0 0.0
2018-Jan-09 08:58N 34°10' E 135°10'0 0.0
2018-Jan-09 08:28N 34°10' E 135°10'0 0.0
2018-Jan-09 07:58N 34°10' E 135°10'0 0.0
2018-Jan-09 07:22N 34°10' E 135°10'0 0.1
2018-Jan-09 06:58N 34°10' E 135°10'0 0.0
2018-Jan-09 06:28N 34°10' E 135°10'0 0.0
2018-Jan-09 05:58N 34°10' E 135°10'0 0.0
2018-Jan-09 05:25N 34°10' E 135°10'0 0.0
2018-Jan-09 04:58N 34°10' E 135°10'0 0.0
2018-Jan-09 04:28N 34°10' E 135°10'0 0.0
2018-Jan-09 03:58N 34°10' E 135°10'0 0.0
2018-Jan-09 03:28N 34°10' E 135°10'0 0.0
2018-Jan-09 02:58N 34°10' E 135°10'0 0.0
2018-Jan-09 02:28N 34°10' E 135°10'0 0.0
2018-Jan-09 01:58N 34°10' E 135°10'0 0.0
2018-Jan-09 01:28N 34°10' E 135°10'  
Track history (hours):
 
Tides and Currents Weather Stations Pressure Air Temp Water Temp Dewpoint Dewpoint Depression Visibility Wind Speed Wind Dir Waves Ship Positions

Kosei Maru

Last reported at 2018-Jan-19 01:00 UTC. Time now 2018-Jan-19 01:24 UTC.
Position N 35°29' E 139°42'.

Length 75 m; draft 5.2 m.

Type: Tanker. MMSI: 431000156.

Date/timePositionNaut miles runAvg speedWind from/ knotsBaromVisibWave heightAir tempDewpointWater temp
2018-Jan-19 01:00N 35°29' E 139°42'611.7
2018-Jan-19 00:30N 35°24' E 139°46'612.2
2018-Jan-19 00:00N 35°18' E 139°44'612.6
2018-Jan-18 23:30N 35°12' E 139°47'613.0
2018-Jan-18 23:00N 35°06' E 139°43'713.0
2018-Jan-18 22:30N 35°02' E 139°37'1013.2
2018-Jan-18 21:43N 34°55' E 139°27'514.1
2018-Jan-18 21:22N 34°52' E 139°22'613.7
2018-Jan-18 20:57N 34°49' E 139°17'613.5
2018-Jan-18 20:30N 34°45' E 139°11'713.7
2018-Jan-18 19:59N 34°40' E 139°04'712.5
2018-Jan-18 19:27N 34°36' E 138°58'612.1
2018-Jan-18 18:59N 34°35' E 138°51'1013.2
2018-Jan-18 18:13N 34°34' E 138°39'313.2
2018-Jan-18 18:00N 34°33' E 138°36'713.5
2018-Jan-18 17:30N 34°33' E 138°28'814.0
2018-Jan-18 16:54N 34°33' E 138°17'4414.7
2018-Jan-18 13:55N 34°32' E 137°24'12411.1
2018-Jan-18 02:46N 33°52' E 135°02'313.4
2018-Jan-18 02:30N 33°55' E 135°01'714.1
2018-Jan-18 02:00N 34°02' E 135°00'713.7
2018-Jan-18 01:30N 34°09' E 134°59'713.2
2018-Jan-18 01:00N 34°15' E 134°59'1111.1
2018-Jan-18 00:00N 34°25' E 135°06'113.3
2018-Jan-17 23:57N 34°25' E 135°06'  
2018-Jan-12 14:57N 34°32' E 135°19'0 0.0
2018-Jan-12 14:30N 34°32' E 135°19'0 0.0
2018-Jan-12 14:00N 34°32' E 135°19'0 0.0
2018-Jan-12 13:30N 34°32' E 135°19'0 0.0
2018-Jan-12 13:00N 34°32' E 135°19'0 0.0
2018-Jan-12 12:30N 34°32' E 135°19'0 0.0
2018-Jan-12 12:00N 34°32' E 135°19'0 0.0
2018-Jan-12 11:30N 34°32' E 135°19'0 0.0
2018-Jan-12 11:00N 34°32' E 135°19'0 0.0
2018-Jan-12 10:30N 34°32' E 135°19'0 0.0
2018-Jan-12 10:00N 34°33' E 135°19'0 0.1
2018-Jan-12 09:30N 34°33' E 135°19'611.5
2018-Jan-12 09:00N 34°29' E 135°14'713.2
2018-Jan-12 08:30N 34°24' E 135°08'613.2
2018-Jan-12 08:01N 34°20' E 135°02'612.2
2018-Jan-12 07:30N 34°14' E 134°60'612.8
2018-Jan-12 07:00N 34°08' E 135°00'612.8
2018-Jan-12 06:30N 34°01' E 135°01'712.8
2018-Jan-12 05:58N 33°55' E 135°01'16410.1
2018-Jan-11 13:45N 34°32' E 138°14'3 9.3
2018-Jan-11 13:27N 34°33' E 138°18'5 9.7
2018-Jan-11 12:58N 34°33' E 138°24'21 9.5
2018-Jan-11 10:45N 34°34' E 138°49'4 8.8
2018-Jan-11 10:20N 34°35' E 138°53'3 8.5
2018-Jan-11 10:00N 34°36' E 138°57'510.2
2018-Jan-11 09:29N 34°40' E 139°01'1011.6
2018-Jan-11 08:36N 34°48' E 139°08'610.6
2018-Jan-11 08:01N 34°53' E 139°12'211.1
2018-Jan-11 07:50N 34°55' E 139°14'611.3
2018-Jan-11 07:19N 34°58' E 139°20'311.6
2018-Jan-11 07:00N 34°60' E 139°24'611.3
2018-Jan-11 06:30N 35°02' E 139°30'510.7
2018-Jan-11 06:00N 35°04' E 139°36'5 9.8
2018-Jan-11 05:30N 35°07' E 139°41'510.8
2018-Jan-11 05:00N 35°11' E 139°45'511.1
2018-Jan-11 04:30N 35°17' E 139°46'612.3
2018-Jan-11 04:00N 35°22' E 139°42'612.6
2018-Jan-11 03:30N 35°28' E 139°46'4 8.1
2018-Jan-11 03:00N 35°32' E 139°46'0 0.0
2018-Jan-10 22:05N 35°32' E 139°46'0 0.0
2018-Jan-10 22:01N 35°32' E 139°46'2 3.3
2018-Jan-10 21:29N 35°30' E 139°47'1 3.0
2018-Jan-10 21:00N 35°29' E 139°48'0 0.0
2018-Jan-10 20:29N 35°29' E 139°48'0 0.0
2018-Jan-10 19:56N 35°29' E 139°48'0 0.0
2018-Jan-10 19:29N 35°29' E 139°48'0 0.0
2018-Jan-10 18:59N 35°29' E 139°48'0 0.0
2018-Jan-10 18:29N 35°29' E 139°48'0 0.0
2018-Jan-10 17:59N 35°29' E 139°48'0 0.1
2018-Jan-10 17:29N 35°29' E 139°48'0 0.1
2018-Jan-10 16:56N 35°29' E 139°48'0 0.1
2018-Jan-10 16:29N 35°29' E 139°48'0 0.1
2018-Jan-10 15:59N 35°29' E 139°48'0 0.0
2018-Jan-10 15:23N 35°29' E 139°48'0 0.1
2018-Jan-10 14:59N 35°29' E 139°48'0 0.0
2018-Jan-10 14:29N 35°29' E 139°48'0 0.0
2018-Jan-10 13:53N 35°29' E 139°48'0 0.1
2018-Jan-10 13:26N 35°29' E 139°48'0 0.0
2018-Jan-10 12:59N 35°29' E 139°48'0 0.1
2018-Jan-10 12:26N 35°29' E 139°48'0 0.0
2018-Jan-10 11:59N 35°29' E 139°48'0 0.0
2018-Jan-10 11:29N 35°29' E 139°48'0 0.7
2018-Jan-10 11:00N 35°29' E 139°47'612.8
2018-Jan-10 10:30N 35°23' E 139°45'612.4
2018-Jan-10 10:00N 35°16' E 139°46'612.8
2018-Jan-10 09:31N 35°10' E 139°46'713.8
2018-Jan-10 09:00N 35°04' E 139°41'714.3
2018-Jan-10 08:30N 35°00' E 139°34'1014.8
2018-Jan-10 07:50N 34°54' E 139°25'616.4
2018-Jan-10 07:29N 34°51' E 139°19'715.0
2018-Jan-10 07:00N 34°47' E 139°12'714.5
2018-Jan-10 06:31N 34°41' E 139°06'814.5
2018-Jan-10 05:59N 34°37' E 138°59'714.6
2018-Jan-10 05:31N 34°34' E 138°51'914.7
2018-Jan-10 04:56N 34°34' E 138°40'614.3
2018-Jan-10 04:30N 34°34' E 138°33'713.7
2018-Jan-10 03:59N 34°33' E 138°24'714.8
2018-Jan-10 03:29N 34°33' E 138°15'16511.8
2018-Jan-09 13:32N 33°52' E 135°02'114.5
2018-Jan-09 13:30N 33°52' E 135°02'713.8
2018-Jan-09 13:00N 33°59' E 135°01'714.0
2018-Jan-09 12:30N 34°06' E 135°03'612.7
2018-Jan-09 12:00N 34°10' E 135°09'0 0.5
2018-Jan-09 11:28N 34°10' E 135°10'0 0.0
2018-Jan-09 10:58N 34°10' E 135°10'0 0.0
2018-Jan-09 10:28N 34°10' E 135°10'0 0.0
2018-Jan-09 09:58N 34°10' E 135°10'0 0.0
2018-Jan-09 09:28N 34°10' E 135°10'0 0.0
2018-Jan-09 08:58N 34°10' E 135°10'0 0.0
2018-Jan-09 08:28N 34°10' E 135°10'0 0.0
2018-Jan-09 07:58N 34°10' E 135°10'0 0.0
2018-Jan-09 07:22N 34°10' E 135°10'0 0.1
2018-Jan-09 06:58N 34°10' E 135°10'0 0.0
2018-Jan-09 06:28N 34°10' E 135°10'0 0.0
2018-Jan-09 05:58N 34°10' E 135°10'0 0.0
2018-Jan-09 05:25N 34°10' E 135°10'0 0.0
2018-Jan-09 04:58N 34°10' E 135°10'0 0.0
2018-Jan-09 04:28N 34°10' E 135°10'0 0.0
2018-Jan-09 03:58N 34°10' E 135°10'0 0.0
2018-Jan-09 03:28N 34°10' E 135°10'0 0.0
2018-Jan-09 02:58N 34°10' E 135°10'0 0.0
2018-Jan-09 02:28N 34°10' E 135°10'0 0.0
2018-Jan-09 01:58N 34°10' E 135°10'0 0.0
2018-Jan-09 01:28N 34°10' E 135°10'  

Dump ship's entire track history